Kezdőlap
METAR-TAF:

METAR-TAF

Repülőterek :

Murcia, Corvera, Spanyolország

földrajzi szélesség: 37-48-13N, földrajzi hosszúság: 1-07-27W, magasság: 193 m

Jelenlegi meteorológiai megfigyelések

A jelentés 39 perccel ezelõtt készült, 00:30 UTC
Északnyugati szél 4 kt
Hőmérséklet 19°C
Páratartalom 88%
Légköri nyomás 1016 hPa
Látótávolság 10 km, vagy több
felhőtlen 1500 m magasságban, és nincs gomolyfelhõ

METAR: LEMI 270030Z AUTO 32004KT CAVOK 19/17 Q1016

Idő: 03:09 (01:09 UTC)


TAF: hiányzik

Meteorológiai megfigyelések és előrejelzések több, mint 4000 repülőtéren (METAR és TAF jelentéseket).

A térképen piros és sárga pontok jelzik az elérhető meteorológiai állomásokat.

Mozgassa az egeret a pont fölött, hogy megjelenjen az állomás neve.

Azután kattintson az időjárási megfigyelések és előrejelzések megtekintéséhez.

A térkép megváltoztatása: kattintson a fekete keresztel jelölt zöld gombra ráközelítéshez, a vonallal jelölt zöld gombra távolításhoz, vagy a zöld nyilakra a szomszédos térképek eléréséhez.


METAR-TAF: